Time;durP1;ratioP1;P1;durP2;ratioP2;P2;SDS_P1;SDS_P2;PMS_P1;PMS_P2;Temp;Humidity;BMP_temperature;BMP_pressure;BME280_temperature;BME280_humidity;BME280_pressure;Samples;Min_cycle;Max_cycle;Signal;HPM_P1;HPM_P2
2023/04/06 00:09:10;;;;;;;29.50;12.37;;;9.70;99.90;;;;;;4132193;28;20204;-92
2023/04/06 00:11:11;;;;;;;30.90;14.27;;;9.50;99.90;;;;;;4116676;28;20178;-94
2023/04/06 00:13:12;;;;;;;30.70;13.33;;;9.50;99.90;;;;;;4116918;28;20186;-96
2023/04/06 00:15:13;;;;;;;25.17;12.83;;;9.50;99.90;;;;;;4116828;28;20257;-92
2023/04/06 00:17:14;;;;;;;28.00;13.13;;;9.50;99.90;;;;;;4116818;28;20189;-92
2023/04/06 00:19:15;;;;;;;28.43;13.10;;;9.50;99.90;;;;;;4116756;28;20232;-94
2023/04/06 00:21:16;;;;;;;24.27;12.50;;;9.50;99.90;;;;;;4116611;28;20182;-93
2023/04/06 00:23:17;;;;;;;28.50;13.00;;;9.60;99.90;;;;;;4116498;28;20194;-92
2023/04/06 00:25:17;;;;;;;25.40;13.27;;;9.50;99.90;;;;;;4116569;28;20214;-95
2023/04/06 00:27:18;;;;;;;26.83;12.80;;;9.40;99.90;;;;;;4116282;28;20174;-92
2023/04/06 00:29:19;;;;;;;25.83;12.70;;;9.20;99.90;;;;;;4116860;28;20166;-94
2023/04/06 00:31:20;;;;;;;28.50;13.27;;;9.30;99.90;;;;;;4132401;28;20657;-92
2023/04/06 00:33:22;;;;;;;25.50;12.60;;;9.20;99.90;;;;;;4132299;28;20196;-94
2023/04/06 00:35:23;;;;;;;33.00;13.23;;;9.30;99.90;;;;;;4116267;28;20159;-93
2023/04/06 00:37:24;;;;;;;26.50;13.10;;;9.10;99.90;;;;;;4116205;28;20182;-93
2023/04/06 00:39:25;;;;;;;30.43;12.50;;;9.30;99.90;;;;;;4116247;28;20170;-94
2023/04/06 00:41:25;;;;;;;26.83;13.00;;;9.30;99.90;;;;;;4116584;28;20214;-94
2023/04/06 00:43:26;;;;;;;27.87;12.93;;;9.10;99.90;;;;;;4116165;28;20198;-93
2023/04/06 00:45:27;;;;;;;24.23;12.83;;;9.20;99.90;;;;;;4116301;28;20304;-94
2023/04/06 00:47:28;;;;;;;30.30;13.10;;;9.20;99.90;;;;;;4132358;28;20265;-93
2023/04/06 00:49:30;;;;;;;24.00;12.43;;;9.20;99.90;;;;;;4116231;28;20737;-93
2023/04/06 00:51:31;;;;;;;22.77;12.83;;;9.00;99.90;;;;;;4116168;28;20166;-91
2023/04/06 00:53:32;;;;;;;24.23;13.17;;;8.90;99.90;;;;;;4116500;28;20284;-92
2023/04/06 00:55:35;;;;;;;26.70;12.87;;;9.00;99.90;;;;;;4116783;28;20181;-93
2023/04/06 00:57:37;;;;;;;24.35;12.65;;;9.10;99.90;;;;;;4116197;28;20198;-93
2023/04/06 00:59:38;;;;;;;23.67;12.40;;;9.10;99.90;;;;;;4116204;28;20162;-94
2023/04/06 01:01:41;;;;;;;32.17;12.90;;;9.10;99.90;;;;;;4116669;28;20173;-93
2023/04/06 01:03:57;;;;;;;26.47;12.20;;;9.10;99.90;;;;;;4132606;28;20332;-92
2023/04/06 01:05:58;;;;;;;27.03;13.27;;;9.20;99.90;;;;;;4116655;28;20325;-93
2023/04/06 01:08:04;;;;;;;24.83;12.50;;;9.20;99.90;;;;;;4132574;28;20188;-93
2023/04/06 01:10:06;;;;;;;36.53;13.63;;;9.20;99.90;;;;;;4116590;28;20538;-92
2023/04/06 01:12:09;;;;;;;28.20;13.90;;;9.30;99.90;;;;;;4132489;28;20177;-93
2023/04/06 01:14:10;;;;;;;30.43;13.40;;;9.20;99.90;;;;;;4116196;28;20536;-94
2023/04/06 01:16:24;;;;;;;30.23;13.60;;;9.00;99.90;;;;;;4132141;28;20169;-93
2023/04/06 01:18:51;;;;;;;31.77;12.83;;;8.90;99.90;;;;;;4131609;28;20212;-94
2023/04/06 01:21:04;;;;;;;27.13;12.57;;;8.70;99.90;;;;;;4117821;28;20197;-91
2023/04/06 01:23:05;;;;;;;32.07;13.63;;;8.50;99.90;;;;;;4115947;28;20194;-93
2023/04/06 01:25:07;;;;;;;26.13;13.83;;;8.70;99.90;;;;;;4131811;28;20178;-93
2023/04/06 01:27:35;;;;;;;26.10;13.40;;;8.70;99.90;;;;;;4143556;28;20178;-94
2023/04/06 01:29:50;;;;;;;32.57;13.90;;;8.60;99.90;;;;;;4118274;28;20173;-93
2023/04/06 01:32:05;;;;;;;32.17;13.33;;;8.80;99.90;;;;;;4119029;28;20174;-93
2023/04/06 01:34:11;;;;;;;26.43;12.60;;;8.80;99.90;;;;;;4118333;28;20229;-92
2023/04/06 01:36:12;;;;;;;29.33;13.73;;;8.80;99.90;;;;;;4117748;28;20193;-95
2023/04/06 01:38:13;;;;;;;30.30;13.00;;;8.80;99.90;;;;;;4118379;28;20170;-93
2023/04/06 01:40:14;;;;;;;31.00;13.13;;;8.70;99.90;;;;;;4118031;28;20548;-93
2023/04/06 01:42:20;;;;;;;24.67;13.17;;;8.70;99.90;;;;;;4133881;28;20198;-94
2023/04/06 01:44:22;;;;;;;23.60;12.77;;;8.60;99.90;;;;;;4118353;28;20656;-94
2023/04/06 01:46:31;;;;;;;24.47;12.10;;;8.50;99.90;;;;;;4134479;28;20235;-94
2023/04/06 01:48:32;;;;;;;26.33;13.60;;;8.50;99.90;;;;;;4134071;28;20170;-94
2023/04/06 01:50:36;;;;;;;27.03;12.97;;;8.40;99.90;;;;;;4137109;28;20220;-93
2023/04/06 01:52:37;;;;;;;23.80;12.63;;;8.30;99.90;;;;;;4136764;28;20185;-93
2023/04/06 01:54:38;;;;;;;23.93;12.20;;;8.30;99.90;;;;;;4121434;28;20182;-94
2023/04/06 01:56:51;;;;;;;24.07;12.83;;;8.30;99.90;;;;;;4137543;28;20600;-94
2023/04/06 01:59:10;;;;;;;28.30;12.73;;;8.40;99.90;;;;;;4143457;28;20177;-92
2023/04/06 02:01:15;;;;;;;27.70;13.67;;;8.40;99.90;;;;;;4129902;28;20178;-94
2023/04/06 02:03:27;;;;;;;21.47;12.30;;;8.50;99.90;;;;;;4130847;28;20687;-93
2023/04/06 02:05:40;;;;;;;23.30;12.20;;;8.60;99.90;;;;;;4130926;28;20220;-93
2023/04/06 02:08:01;;;;;;;23.90;12.43;;;8.70;99.90;;;;;;4145732;28;20185;-92
2023/04/06 02:10:12;;;;;;;24.43;13.00;;;8.70;99.90;;;;;;4129593;28;20174;-92
2023/04/06 02:12:13;;;;;;;28.17;12.70;;;8.70;99.90;;;;;;4145264;28;20174;-92
2023/04/06 02:14:14;;;;;;;24.13;13.40;;;8.70;99.90;;;;;;4143802;28;20166;-94
2023/04/06 02:16:20;;;;;;;23.67;12.67;;;8.90;99.90;;;;;;4127920;28;20670;-92
2023/04/06 02:18:22;;;;;;;29.07;14.17;;;8.90;99.90;;;;;;4128183;28;20166;-94
2023/04/06 02:20:23;;;;;;;23.27;12.20;;;8.80;99.90;;;;;;4127152;28;20181;-93
2023/04/06 02:22:24;;;;;;;24.37;13.27;;;8.80;99.90;;;;;;4126050;28;20829;-94
2023/04/06 02:24:25;;;;;;;26.80;12.50;;;8.80;99.90;;;;;;4124921;28;20185;-93
2023/04/06 02:26:26;;;;;;;27.40;13.97;;;8.80;99.90;;;;;;4139708;28;20236;-92
2023/04/06 02:28:27;;;;;;;29.57;12.53;;;8.80;99.90;;;;;;4121592;28;20182;-92
2023/04/06 02:30:28;;;;;;;23.50;13.10;;;8.80;99.90;;;;;;4134719;28;20173;-92
2023/04/06 02:32:29;;;;;;;25.03;13.10;;;8.80;99.90;;;;;;4136092;28;20189;-93
2023/04/06 02:34:31;;;;;;;23.40;13.27;;;8.90;99.90;;;;;;4135492;28;20174;-93
2023/04/06 02:36:32;;;;;;;25.63;12.30;;;9.00;99.90;;;;;;4134439;28;20225;-92
2023/04/06 02:38:32;;;;;;;21.87;12.90;;;8.90;99.90;;;;;;4134399;28;20173;-93
2023/04/06 02:40:35;;;;;;;22.00;12.87;;;9.00;99.90;;;;;;4118578;28;20547;-94
2023/04/06 02:42:47;;;;;;;28.37;13.37;;;9.00;99.90;;;;;;4134104;28;20280;-93
2023/04/06 02:44:49;;;;;;;22.40;12.80;;;8.90;99.90;;;;;;4118863;28;20174;-93
2023/04/06 02:46:51;;;;;;;28.10;13.40;;;8.80;99.90;;;;;;4134055;28;20241;-92
2023/04/06 02:48:52;;;;;;;25.73;13.60;;;8.90;99.90;;;;;;4134346;28;20170;-93
2023/04/06 02:50:53;;;;;;;24.20;12.73;;;8.80;99.90;;;;;;4118157;28;20534;-93
2023/04/06 02:52:54;;;;;;;29.17;13.23;;;8.90;99.90;;;;;;4133909;28;20200;-94
2023/04/06 02:54:55;;;;;;;22.67;12.83;;;8.80;99.90;;;;;;4121110;28;20196;-94
2023/04/06 02:57:01;;;;;;;23.73;12.90;;;8.80;99.90;;;;;;4133306;28;20186;-94
2023/04/06 02:59:11;;;;;;;21.60;12.90;;;8.80;99.90;;;;;;4118922;28;20178;-93
2023/04/06 03:01:13;;;;;;;24.40;13.17;;;8.70;99.90;;;;;;4133399;28;20176;-92
2023/04/06 03:03:15;;;;;;;21.90;12.73;;;8.80;99.90;;;;;;4118031;28;20575;-93
2023/04/06 03:05:17;;;;;;;22.63;12.70;;;8.70;99.90;;;;;;4117581;28;20265;-94
2023/04/06 03:07:20;;;;;;;23.50;13.17;;;8.60;99.90;;;;;;4117641;28;20185;-93
2023/04/06 03:09:21;;;;;;;21.83;13.13;;;8.60;99.90;;;;;;4117243;28;20166;-94
2023/04/06 03:11:22;;;;;;;22.67;13.00;;;8.50;99.90;;;;;;4117632;28;20325;-92
2023/04/06 03:13:25;;;;;;;21.80;13.27;;;8.70;99.90;;;;;;4117473;28;20187;-94
2023/04/06 03:15:29;;;;;;;21.13;13.00;;;8.80;99.90;;;;;;4117896;28;20170;-94
2023/04/06 03:17:39;;;;;;;22.83;12.10;;;8.80;99.90;;;;;;4118526;28;20264;-92
2023/04/06 03:19:45;;;;;;;25.10;13.30;;;8.70;99.90;;;;;;4117929;28;20179;-94
2023/04/06 03:21:47;;;;;;;22.63;13.47;;;8.80;99.90;;;;;;4133480;28;20177;-92
2023/04/06 03:23:50;;;;;;;24.47;13.07;;;8.90;99.90;;;;;;4117253;28;20563;-94
2023/04/06 03:25:51;;;;;;;25.77;13.50;;;8.80;99.90;;;;;;4117367;28;20237;-92
2023/04/06 03:27:54;;;;;;;21.70;12.83;;;8.90;99.90;;;;;;4117222;28;20767;-93
2023/04/06 03:29:55;;;;;;;21.43;13.37;;;8.90;99.90;;;;;;4133036;28;20174;-93
2023/04/06 03:32:04;;;;;;;27.90;13.13;;;8.80;99.90;;;;;;4134035;28;20180;-93
2023/04/06 03:34:12;;;;;;;21.77;13.80;;;8.80;99.90;;;;;;4118061;28;20170;-93
2023/04/06 03:36:12;;;;;;;22.20;13.80;;;8.80;99.90;;;;;;4117246;28;20176;-94
2023/04/06 03:38:16;;;;;;;25.13;13.63;;;8.80;99.90;;;;;;4117375;28;20222;-93
2023/04/06 03:40:17;;;;;;;25.90;13.00;;;8.80;99.90;;;;;;4117223;28;20179;-93
2023/04/06 03:42:18;;;;;;;26.93;13.57;;;8.70;99.90;;;;;;4133057;28;20585;-94
2023/04/06 03:44:25;;;;;;;25.37;13.73;;;8.70;99.90;;;;;;4117720;28;20282;-94
2023/04/06 03:46:26;;;;;;;24.13;13.77;;;8.70;99.90;;;;;;4132915;28;20316;-92
2023/04/06 03:48:30;;;;;;;22.07;13.37;;;8.70;99.90;;;;;;4132955;28;20177;-94
2023/04/06 03:50:34;;;;;;;23.83;14.03;;;8.70;99.90;;;;;;4133324;28;20180;-93
2023/04/06 03:52:36;;;;;;;23.50;13.70;;;8.80;99.90;;;;;;4133071;28;20185;-94
2023/04/06 03:54:37;;;;;;;21.13;13.80;;;8.80;99.90;;;;;;4116757;28;20635;-94
2023/04/06 03:56:38;;;;;;;24.23;14.90;;;8.80;99.90;;;;;;4116826;28;20202;-94
2023/04/06 03:58:38;;;;;;;23.50;14.77;;;8.90;99.90;;;;;;4117405;28;20185;-92
2023/04/06 04:00:39;;;;;;;20.97;13.90;;;9.00;99.90;;;;;;4116920;28;20253;-93
2023/04/06 04:02:41;;;;;;;27.77;15.00;;;8.90;99.90;;;;;;4132871;28;20578;-94
2023/04/06 04:04:42;;;;;;;25.53;14.90;;;8.90;99.90;;;;;;4117178;28;20174;-93
2023/04/06 04:06:43;;;;;;;26.43;14.60;;;9.00;99.90;;;;;;4132952;28;20213;-92
2023/04/06 04:08:43;;;;;;;26.80;16.43;;;9.00;99.90;;;;;;4116932;28;20221;-93
2023/04/06 04:10:44;;;;;;;28.23;15.03;;;9.10;99.90;;;;;;4116944;28;20570;-92
2023/04/06 04:12:45;;;;;;;27.87;15.47;;;9.30;99.90;;;;;;4132809;28;20240;-94
2023/04/06 04:14:46;;;;;;;30.57;15.83;;;9.30;99.90;;;;;;4134853;28;20249;-92
2023/04/06 04:16:47;;;;;;;28.83;16.17;;;9.10;99.90;;;;;;4119094;28;20236;-93
2023/04/06 04:18:48;;;;;;;31.77;15.83;;;9.10;99.90;;;;;;4119153;28;20674;-92
2023/04/06 04:20:49;;;;;;;27.27;16.13;;;9.00;99.90;;;;;;4134311;28;20177;-94
2023/04/06 04:22:50;;;;;;;28.70;15.83;;;9.10;99.90;;;;;;4134279;28;20189;-92
2023/04/06 04:24:51;;;;;;;35.03;16.93;;;9.10;99.90;;;;;;4134588;28;20170;-92
2023/04/06 04:26:52;;;;;;;29.83;15.77;;;9.00;99.90;;;;;;4134275;28;20213;-93
2023/04/06 04:28:54;;;;;;;29.73;16.83;;;9.00;99.90;;;;;;4118294;28;20662;-94
2023/04/06 04:30:55;;;;;;;27.70;16.47;;;9.10;99.90;;;;;;4134050;28;20264;-91
2023/04/06 04:32:56;;;;;;;29.90;17.13;;;9.20;99.90;;;;;;4118976;28;20193;-92
2023/04/06 04:34:58;;;;;;;363.37;188.33;;;9.30;99.90;;;;;;4135165;28;20181;-92
2023/04/06 04:37:09;;;;;;;43.97;26.13;;;9.30;99.90;;;;;;4135141;28;20255;-93
2023/04/06 04:39:20;;;;;;;31.93;18.03;;;9.20;99.90;;;;;;4119145;28;20174;-93
2023/04/06 04:41:29;;;;;;;28.57;17.97;;;9.20;99.90;;;;;;4126697;28;20178;-92
2023/04/06 04:43:31;;;;;;;31.27;19.47;;;9.30;99.90;;;;;;4128847;28;20262;-93
2023/04/06 04:45:33;;;;;;;32.47;18.37;;;9.30;99.90;;;;;;4128798;28;20212;-93
2023/04/06 04:47:39;;;;;;;28.57;17.17;;;9.30;99.90;;;;;;4129151;28;20185;-92
2023/04/06 04:49:41;;;;;;;31.00;17.80;;;9.10;99.90;;;;;;4127132;28;20174;-93
2023/04/06 04:51:42;;;;;;;34.37;17.77;;;9.00;99.90;;;;;;4129302;28;20185;-93
2023/04/06 04:53:51;;;;;;;29.47;17.53;;;9.10;99.90;;;;;;4129572;28;20713;-92
2023/04/06 04:55:56;;;;;;;33.17;17.60;;;9.10;99.90;;;;;;4128000;28;20224;-94
2023/04/06 04:57:58;;;;;;;33.40;17.60;;;9.20;99.90;;;;;;4127510;28;20186;-93
2023/04/06 05:00:17;;;;;;;30.17;17.37;;;9.20;99.90;;;;;;4129336;28;20245;-93
2023/04/06 05:02:19;;;;;;;27.97;17.20;;;9.20;99.90;;;;;;4126344;28;20201;-93
2023/04/06 05:04:31;;;;;;;32.17;18.70;;;9.30;99.90;;;;;;4129347;28;20178;-92
2023/04/06 05:06:35;;;;;;;30.37;18.27;;;9.30;99.90;;;;;;4137297;28;20213;-92
2023/04/06 05:08:36;;;;;;;36.20;17.83;;;9.30;99.90;;;;;;4117546;28;20564;-92
2023/04/06 05:10:37;;;;;;;30.97;18.60;;;9.40;99.90;;;;;;4116960;28;20595;-91
2023/04/06 05:12:38;;;;;;;31.87;17.70;;;9.40;99.90;;;;;;4116452;28;20202;-92
2023/04/06 05:14:41;;;;;;;28.30;17.27;;;9.30;99.90;;;;;;4117133;28;20174;-92
2023/04/06 05:16:48;;;;;;;33.03;16.90;;;9.40;99.90;;;;;;4117870;28;20678;-93
2023/04/06 05:18:49;;;;;;;26.87;17.07;;;9.40;99.90;;;;;;4116314;28;20198;-92
2023/04/06 05:20:51;;;;;;;31.47;17.97;;;9.30;99.90;;;;;;4116294;28;20179;-93
2023/04/06 05:22:56;;;;;;;30.67;17.53;;;9.30;99.90;;;;;;4132869;28;20750;-93
2023/04/06 05:24:57;;;;;;;36.13;18.27;;;9.40;99.90;;;;;;4120046;28;20180;-92
2023/04/06 05:26:58;;;;;;;34.00;17.57;;;9.30;99.90;;;;;;4122668;28;20253;-93
2023/04/06 05:28:59;;;;;;;36.73;17.83;;;9.40;99.90;;;;;;4136181;28;20232;-93
2023/04/06 08:45:21;;;;;;;21.13;10.97;;;9.60;99.90;;;;;;4607890;22;20499;-93
2023/04/06 08:47:23;;;;;;;23.30;11.53;;;9.60;99.90;;;;;;4132133;28;20178;-91
2023/04/06 08:49:23;;;;;;;20.37;10.83;;;9.40;99.90;;;;;;4132478;28;20176;-91
2023/04/06 08:51:28;;;;;;;21.07;10.33;;;9.40;99.90;;;;;;4148249;28;20560;-91
2023/04/06 08:53:28;;;;;;;23.20;11.23;;;9.50;99.90;;;;;;4132095;28;20185;-92
2023/04/06 08:55:29;;;;;;;21.53;11.03;;;9.60;99.90;;;;;;4132062;28;20189;-92
2023/04/06 08:57:31;;;;;;;23.30;11.17;;;9.50;99.90;;;;;;4115751;28;20189;-93
2023/04/06 08:59:33;;;;;;;20.87;10.73;;;9.40;99.90;;;;;;4147646;28;20169;-90
2023/04/06 09:01:39;;;;;;;24.17;11.03;;;9.50;99.90;;;;;;4132037;28;20174;-90
2023/04/06 09:03:41;;;;;;;18.73;9.80;;;9.60;99.90;;;;;;4116069;28;20189;-91
2023/04/06 09:05:42;;;;;;;20.53;10.27;;;9.60;99.90;;;;;;4132467;28;20180;-92
2023/04/06 09:07:44;;;;;;;18.63;10.00;;;9.60;99.90;;;;;;4115890;28;20229;-91
2023/04/06 09:09:48;;;;;;;21.17;9.70;;;9.80;99.90;;;;;;4116159;28;20702;-92
2023/04/06 09:11:50;;;;;;;19.10;9.57;;;10.00;99.90;;;;;;4116091;28;20167;-91
2023/04/06 09:13:53;;;;;;;18.03;8.80;;;9.90;99.90;;;;;;4115782;28;20241;-92
2023/04/06 09:16:05;;;;;;;15.77;9.17;;;9.90;99.90;;;;;;4131745;28;20762;-92
2023/04/06 09:18:07;;;;;;;14.53;9.00;;;9.90;99.90;;;;;;4115792;28;20181;-91
2023/04/06 09:20:08;;;;;;;15.30;8.07;;;10.10;99.90;;;;;;4131855;28;20598;-91
2023/04/06 09:22:09;;;;;;;15.87;8.30;;;9.90;99.90;;;;;;4131765;28;20177;-92
2023/04/06 09:24:10;;;;;;;17.00;8.40;;;9.70;99.90;;;;;;4116065;28;20174;-93
2023/04/06 09:26:16;;;;;;;15.30;7.90;;;9.50;99.90;;;;;;4115999;28;20174;-90
2023/04/06 09:28:17;;;;;;;14.43;9.07;;;9.70;99.90;;;;;;4115682;28;20233;-93
2023/04/06 09:30:18;;;;;;;13.87;8.00;;;9.70;99.90;;;;;;4131961;28;20697;-91
2023/04/06 09:32:19;;;;;;;14.00;8.10;;;9.70;99.90;;;;;;4115857;28;20201;-93
2023/04/06 09:34:23;;;;;;;14.67;7.80;;;9.70;99.90;;;;;;4131834;28;20176;-91
2023/04/06 09:36:38;;;;;;;14.70;8.27;;;9.60;99.90;;;;;;4115529;28;20226;-93
2023/04/06 09:38:55;;;;;;;12.87;7.63;;;9.70;99.90;;;;;;4131435;28;20186;-92
2023/04/06 09:40:55;;;;;;;15.03;8.50;;;9.50;99.90;;;;;;4115588;28;20181;-91
2023/04/06 09:42:58;;;;;;;13.97;7.60;;;9.60;99.90;;;;;;4131333;28;20224;-92
2023/04/06 09:44:59;;;;;;;14.67;7.70;;;9.60;99.90;;;;;;4116244;28;20198;-90
2023/04/06 09:47:00;;;;;;;17.33;8.10;;;9.60;99.90;;;;;;4115671;28;20173;-93
2023/04/06 09:49:04;;;;;;;15.67;8.13;;;9.60;99.90;;;;;;4131820;28;20182;-92
2023/04/06 09:51:06;;;;;;;19.80;8.20;;;9.70;99.90;;;;;;4115548;28;20214;-91
2023/04/06 09:53:07;;;;;;;14.13;8.43;;;9.70;99.90;;;;;;4115804;28;20714;-92
2023/04/06 09:55:09;;;;;;;15.87;8.30;;;9.80;99.90;;;;;;4115593;28;21429;-91
2023/04/06 09:57:28;;;;;;;17.93;8.67;;;9.80;99.90;;;;;;4115151;28;20205;-93
2023/04/06 09:59:47;;;;;;;13.63;7.93;;;9.80;99.90;;;;;;4115676;28;20178;-92
2023/04/06 10:01:51;;;;;;;20.27;8.50;;;9.70;99.90;;;;;;4115837;28;20194;-91
2023/04/06 10:04:18;;;;;;;19.10;10.20;;;9.80;99.90;;;;;;4115781;28;20191;-93
2023/04/06 10:06:23;;;;;;;17.83;9.30;;;9.90;99.90;;;;;;4115754;28;20582;-94
2023/04/06 10:08:27;;;;;;;21.77;9.27;;;10.00;99.90;;;;;;4115561;28;20253;-92
2023/04/06 10:10:30;;;;;;;17.63;10.03;;;10.10;99.90;;;;;;4115260;28;20185;-92
2023/04/06 10:12:31;;;;;;;15.80;9.77;;;10.10;99.90;;;;;;4133804;28;20197;-91
2023/04/06 10:14:37;;;;;;;19.20;10.10;;;10.20;99.90;;;;;;4118272;28;20204;-91
2023/04/06 10:16:37;;;;;;;17.97;10.13;;;10.20;99.90;;;;;;4150762;28;20223;-92
2023/04/06 10:18:41;;;;;;;18.43;10.53;;;10.20;99.90;;;;;;4134340;28;20335;-92
2023/04/06 10:20:52;;;;;;;17.53;11.17;;;10.20;99.90;;;;;;4134111;28;20229;-91
2023/04/06 10:23:20;;;;;;;16.17;9.47;;;10.50;99.90;;;;;;4118108;28;20205;-91
2023/04/06 10:25:33;;;;;;;17.90;9.33;;;10.40;99.90;;;;;;4114223;28;20182;-92
2023/04/06 10:27:34;;;;;;;17.73;9.23;;;10.10;99.90;;;;;;4134367;28;20177;-92
2023/04/06 10:29:47;;;;;;;21.37;10.33;;;10.00;99.90;;;;;;4133956;28;20176;-92
2023/04/06 10:31:48;;;;;;;20.20;10.93;;;9.90;99.90;;;;;;4117858;28;20323;-92
2023/04/06 10:34:00;;;;;;;23.63;11.17;;;9.90;99.90;;;;;;4133996;28;20609;-92
2023/04/06 10:36:15;;;;;;;23.57;11.13;;;9.90;99.90;;;;;;4133924;28;20205;-91
2023/04/06 10:38:21;;;;;;;25.73;11.37;;;10.00;99.90;;;;;;4117857;28;20274;-93
2023/04/06 10:40:25;;;;;;;24.10;12.17;;;10.20;99.90;;;;;;4117824;28;20186;-91
2023/04/06 10:42:37;;;;;;;22.57;12.47;;;10.20;99.90;;;;;;4133538;28;20763;-89
2023/04/06 10:44:44;;;;;;;20.77;11.73;;;10.10;99.90;;;;;;4117961;28;20578;-91
2023/04/06 10:46:56;;;;;;;23.00;12.10;;;10.30;99.90;;;;;;4134072;28;20701;-93
2023/04/06 10:48:57;;;;;;;25.83;12.33;;;10.30;99.90;;;;;;4134109;28;20217;-91
2023/04/06 10:50:58;;;;;;;24.73;11.30;;;10.30;99.90;;;;;;4150227;28;20284;-92
2023/04/06 10:53:01;;;;;;;25.30;11.97;;;10.30;99.90;;;;;;4133947;28;20634;-92
2023/04/06 10:55:01;;;;;;;26.17;13.57;;;10.10;99.90;;;;;;4117995;28;20341;-91
2023/04/06 10:57:02;;;;;;;22.97;11.83;;;10.10;99.90;;;;;;4117814;28;20226;-91
2023/04/06 10:59:03;;;;;;;27.30;13.57;;;10.10;99.90;;;;;;4117713;28;20543;-92
2023/04/06 11:01:04;;;;;;;23.17;13.40;;;10.20;99.90;;;;;;4118174;28;20221;-90
2023/04/06 11:03:05;;;;;;;28.47;13.97;;;10.30;99.90;;;;;;4133514;28;20693;-91
2023/04/06 11:05:06;;;;;;;29.87;14.00;;;10.40;99.90;;;;;;4117645;28;20269;-92
2023/04/06 11:07:07;;;;;;;30.23;14.80;;;10.40;99.90;;;;;;4133629;28;20197;-92
2023/04/06 11:09:08;;;;;;;29.83;14.63;;;10.50;99.90;;;;;;4117478;28;20182;-92
2023/04/06 11:11:17;;;;;;;27.83;14.20;;;10.50;99.90;;;;;;4117569;28;20174;-93
2023/04/06 11:13:19;;;;;;;31.33;15.03;;;10.30;99.90;;;;;;4149527;28;20327;-91
2023/04/06 11:15:20;;;;;;;27.70;14.20;;;10.30;99.90;;;;;;4133746;28;20627;-92
2023/04/06 11:17:28;;;;;;;22.73;12.73;;;10.20;99.90;;;;;;4118252;28;20245;-92
2023/04/06 11:19:31;;;;;;;23.77;12.43;;;10.20;99.90;;;;;;4133322;28;20177;-91
2023/04/06 11:21:41;;;;;;;23.93;12.67;;;10.10;99.90;;;;;;4117048;28;20178;-91
2023/04/06 11:23:42;;;;;;;21.03;12.37;;;9.90;99.90;;;;;;4133395;28;20203;-92
2023/04/06 11:25:52;;;;;;;25.97;12.83;;;9.80;99.90;;;;;;4133161;28;20174;-91
2023/04/06 11:27:53;;;;;;;26.67;13.37;;;9.90;99.90;;;;;;4133338;28;20209;-91
2023/04/06 11:29:54;;;;;;;21.60;13.13;;;10.10;99.90;;;;;;4136011;28;20184;-93
2023/04/06 11:32:21;;;;;;;21.33;12.70;;;10.40;99.90;;;;;;4118456;28;20204;-95
2023/04/06 11:34:24;;;;;;;24.87;12.57;;;10.30;99.90;;;;;;4117505;28;20206;-94
2023/04/06 11:36:33;;;;;;;24.83;12.73;;;10.40;99.90;;;;;;4117732;28;20210;-92
2023/04/06 11:38:38;;;;;;;21.33;11.70;;;10.60;99.90;;;;;;4117139;28;20166;-91
2023/04/06 11:40:39;;;;;;;18.37;10.53;;;10.50;99.90;;;;;;4117305;28;20674;-91
2023/04/06 11:42:40;;;;;;;21.10;12.40;;;10.20;99.90;;;;;;4133305;28;20244;-92
2023/04/06 11:44:45;;;;;;;19.83;12.63;;;10.20;99.90;;;;;;4117056;28;20194;-92
2023/04/06 11:46:53;;;;;;;22.10;12.03;;;10.30;99.90;;;;;;4133180;28;20178;-93
2023/04/06 11:48:59;;;;;;;19.70;11.87;;;10.50;99.90;;;;;;4116981;28;20732;-91
2023/04/06 11:51:01;;;;;;;17.90;11.37;;;10.50;99.90;;;;;;4133070;28;20177;-92
2023/04/06 11:53:05;;;;;;;22.90;12.37;;;10.40;99.90;;;;;;4116723;28;20202;-92
2023/04/06 11:55:14;;;;;;;18.53;11.33;;;10.40;99.90;;;;;;4134064;28;20176;-93
2023/04/06 11:57:17;;;;;;;19.37;12.10;;;10.30;99.90;;;;;;4120039;28;20214;-92
2023/04/06 11:59:17;;;;;;;20.57;10.77;;;10.40;99.90;;;;;;4133278;28;20213;-92
2023/04/06 12:01:18;;;;;;;20.23;10.80;;;10.40;99.90;;;;;;4118266;28;20681;-94
2023/04/06 12:03:19;;;;;;;17.10;10.63;;;10.40;99.90;;;;;;4120521;28;20203;-94
2023/04/06 12:05:21;;;;;;;19.80;10.90;;;10.10;99.90;;;;;;4124126;28;20265;-94
2023/04/06 12:07:22;;;;;;;18.63;11.27;;;10.10;99.90;;;;;;4122326;28;20233;-92
2023/04/06 12:09:23;;;;;;;20.77;11.57;;;10.10;99.90;;;;;;4133333;28;20181;-92
2023/04/06 12:11:24;;;;;;;19.27;10.70;;;10.00;99.90;;;;;;4116701;28;20167;-92
2023/04/06 12:13:27;;;;;;;20.63;11.13;;;10.10;99.90;;;;;;4119671;28;20197;-93
2023/04/06 12:15:28;;;;;;;17.53;10.70;;;10.20;99.90;;;;;;4135565;28;20169;-93
2023/04/06 12:17:29;;;;;;;17.07;11.27;;;10.30;99.90;;;;;;4133956;28;20205;-92
2023/04/06 12:19:30;;;;;;;20.10;10.80;;;10.50;99.90;;;;;;4117666;28;20535;-91
2023/04/06 12:21:31;;;;;;;16.10;10.07;;;10.40;99.90;;;;;;4132947;28;20181;-93
2023/04/06 12:23:32;;;;;;;18.17;10.53;;;10.30;99.90;;;;;;4117003;28;20284;-94
2023/04/06 12:25:33;;;;;;;18.40;11.20;;;10.10;99.90;;;;;;4132709;28;20511;-93
2023/04/06 12:27:34;;;;;;;16.87;10.80;;;10.20;99.90;;;;;;4133352;28;20178;-91
2023/04/06 12:29:35;;;;;;;15.80;10.00;;;10.10;99.90;;;;;;4133768;28;20181;-91
2023/04/06 12:31:38;;;;;;;17.33;10.73;;;10.10;99.90;;;;;;4117528;28;20177;-93
2023/04/06 12:33:40;;;;;;;17.67;11.80;;;10.10;99.90;;;;;;4116522;28;20729;-94
2023/04/06 12:35:41;;;;;;;18.53;12.60;;;10.00;99.90;;;;;;4118194;28;20162;-93
2023/04/06 12:37:42;;;;;;;20.03;12.70;;;10.10;99.90;;;;;;4135696;28;20181;-96
2023/04/06 12:39:44;;;;;;;24.57;13.47;;;10.10;99.90;;;;;;4117873;28;20182;-95
2023/04/06 12:41:45;;;;;;;20.63;11.97;;;10.00;99.90;;;;;;4120258;28;20170;-96
2023/04/06 12:43:46;;;;;;;18.97;12.57;;;10.00;99.90;;;;;;4136576;28;20193;-95
2023/04/06 12:45:46;;;;;;;21.03;13.40;;;10.00;99.90;;;;;;4135834;28;20193;-95
2023/04/06 12:47:47;;;;;;;22.57;13.97;;;10.10;99.90;;;;;;4119159;28;20174;-91
2023/04/06 12:49:48;;;;;;;20.67;13.87;;;10.00;99.90;;;;;;4118470;28;20166;-93
2023/04/06 12:51:50;;;;;;;21.53;13.80;;;9.90;99.90;;;;;;4118334;28;20170;-93
2023/04/06 12:53:51;;;;;;;22.27;13.10;;;10.00;99.90;;;;;;4118141;28;20206;-92
2023/04/06 12:55:53;;;;;;;22.90;13.63;;;10.10;99.90;;;;;;4119335;28;20686;-94
2023/04/06 12:57:54;;;;;;;22.30;14.33;;;10.30;99.90;;;;;;4118820;28;20214;-91
2023/04/06 12:59:56;;;;;;;22.43;13.80;;;10.40;99.90;;;;;;4118140;28;20177;-91
2023/04/06 13:01:57;;;;;;;20.43;13.90;;;10.30;99.90;;;;;;4116853;28;20632;-92
2023/04/06 13:03:59;;;;;;;24.03;14.20;;;10.20;99.90;;;;;;4117108;28;20198;-91
2023/04/06 13:06:01;;;;;;;25.17;15.57;;;10.30;99.90;;;;;;4118989;28;20197;-92
2023/04/06 13:08:01;;;;;;;25.23;15.20;;;10.30;99.90;;;;;;4135689;28;20672;-95
2023/04/06 13:10:02;;;;;;;23.83;14.40;;;10.20;99.90;;;;;;4133417;28;20188;-93
2023/04/06 13:12:03;;;;;;;26.47;16.00;;;10.20;99.90;;;;;;4118397;28;20534;-93
2023/04/06 13:14:04;;;;;;;26.77;16.50;;;10.30;99.90;;;;;;4133767;28;20217;-94
2023/04/06 13:16:08;;;;;;;23.80;15.73;;;10.30;99.90;;;;;;4119553;28;20687;-91
2023/04/06 13:18:10;;;;;;;28.67;16.70;;;10.40;99.90;;;;;;4118836;28;20201;-91
2023/04/06 13:20:10;;;;;;;24.60;15.70;;;10.50;99.90;;;;;;4119149;28;20619;-92
2023/04/06 13:22:11;;;;;;;23.27;14.97;;;10.50;99.90;;;;;;4116714;28;20181;-91
2023/04/06 13:24:14;;;;;;;21.57;14.50;;;10.40;99.90;;;;;;4116786;28;20190;-92
2023/04/06 13:26:16;;;;;;;25.90;14.13;;;10.40;99.90;;;;;;4135236;28;20174;-92
2023/04/06 13:28:17;;;;;;;22.13;13.90;;;10.30;99.90;;;;;;4118791;28;20177;-95
2023/04/06 13:30:17;;;;;;;22.57;12.53;;;10.20;99.90;;;;;;4119222;28;20202;-94
2023/04/06 13:32:18;;;;;;;17.83;12.17;;;10.10;99.90;;;;;;4118712;28;20611;-92
2023/04/06 13:34:19;;;;;;;20.93;12.40;;;10.30;99.90;;;;;;4118792;28;20654;-93
2023/04/06 13:36:20;;;;;;;18.50;11.50;;;10.20;99.90;;;;;;4120094;28;20210;-94
2023/04/06 13:38:21;;;;;;;22.87;12.00;;;10.30;99.90;;;;;;4135087;28;20181;-90
2023/04/06 13:40:22;;;;;;;17.87;12.53;;;10.50;99.90;;;;;;4134954;28;20166;-92
2023/04/06 13:42:22;;;;;;;19.73;11.77;;;10.80;99.90;;;;;;4132771;28;20173;-91
2023/04/06 13:44:23;;;;;;;20.97;11.70;;;10.70;99.90;;;;;;4129747;28;20189;-91
2023/04/06 13:46:25;;;;;;;16.97;11.63;;;10.60;99.90;;;;;;4134499;28;20209;-92
2023/04/06 13:48:27;;;;;;;18.13;11.67;;;10.60;99.90;;;;;;4127029;28;20185;-92
2023/04/06 13:50:28;;;;;;;19.67;12.27;;;10.60;99.90;;;;;;4118602;28;20185;-91
2023/04/06 13:52:29;;;;;;;17.47;11.30;;;10.50;99.90;;;;;;4118706;28;20201;-91
2023/04/06 13:54:29;;;;;;;19.27;11.43;;;10.50;99.90;;;;;;4134432;28;20182;-93